createdAt,value
2017-07-09T00:01:55.833Z,70.60
2017-07-09T00:04:24.098Z,69.90
2017-07-09T00:06:51.613Z,69.80
2017-07-09T00:09:19.113Z,69.90
2017-07-09T00:11:46.622Z,69.90
2017-07-09T00:14:14.119Z,69.40
2017-07-09T00:16:41.641Z,69.30
2017-07-09T00:19:09.141Z,69.30
2017-07-09T00:21:36.659Z,69.20
2017-07-09T00:24:04.160Z,69.30
2017-07-09T00:26:31.669Z,69.00
2017-07-09T00:28:59.180Z,68.60
2017-07-09T00:31:26.695Z,69.00
2017-07-09T00:33:54.183Z,68.90
2017-07-09T00:36:21.716Z,69.10
2017-07-09T00:38:49.656Z,69.10
2017-07-09T00:41:17.172Z,69.00
2017-07-09T00:43:44.664Z,69.10
2017-07-09T00:46:12.984Z,69.40
2017-07-09T00:48:40.496Z,70.10
2017-07-09T00:51:08.768Z,70.50
2017-07-09T00:53:36.277Z,69.50
2017-07-09T00:56:03.821Z,69.60
2017-07-09T00:58:31.313Z,69.60
2017-07-09T01:00:58.827Z,69.80
2017-07-09T01:03:26.320Z,69.80
2017-07-09T01:05:53.829Z,69.70
2017-07-09T01:08:22.080Z,69.60
2017-07-09T01:10:49.602Z,69.50
2017-07-09T01:13:17.101Z,69.80
2017-07-09T01:15:44.620Z,69.70
2017-07-09T01:18:12.111Z,69.80
2017-07-09T01:20:39.621Z,69.90
2017-07-09T01:23:07.115Z,69.80
2017-07-09T01:25:34.620Z,69.60
2017-07-09T01:28:02.877Z,70.10
2017-07-09T01:30:30.385Z,69.20
2017-07-09T01:32:57.872Z,69.00
2017-07-09T01:35:25.381Z,69.30
2017-07-09T01:37:53.647Z,69.30
2017-07-09T01:40:21.165Z,69.30
2017-07-09T01:42:48.658Z,69.40
2017-07-09T01:45:16.169Z,69.40
2017-07-09T01:47:43.663Z,69.50
2017-07-09T01:50:11.172Z,69.30
2017-07-09T01:52:38.668Z,69.60
2017-07-09T01:55:06.183Z,69.70
2017-07-09T01:57:34.473Z,70.00
2017-07-09T02:00:01.996Z,69.90
2017-07-09T02:02:29.489Z,70.10
2017-07-09T02:04:57.001Z,70.10
2017-07-09T02:07:24.499Z,70.30
2017-07-09T02:09:52.016Z,70.60
2017-07-09T02:12:19.516Z,70.30
2017-07-09T02:14:47.789Z,71.00
2017-07-09T02:17:15.289Z,70.90
2017-07-09T02:19:42.796Z,71.20
2017-07-09T02:22:11.055Z,72.70
2017-07-09T02:24:38.572Z,71.70
2017-07-09T02:27:06.072Z,71.80
2017-07-09T02:29:33.582Z,72.00
2017-07-09T02:32:01.089Z,72.20
2017-07-09T02:34:28.611Z,72.10
2017-07-09T02:36:56.104Z,72.10
2017-07-09T02:39:23.625Z,72.40
2017-07-09T02:41:51.129Z,72.20
2017-07-09T02:44:18.638Z,72.10
2017-07-09T02:46:46.131Z,72.90
2017-07-09T02:49:13.640Z,72.10
2017-07-09T02:51:41.905Z,72.10
2017-07-09T02:54:10.189Z,71.90
2017-07-09T02:56:38.456Z,71.70
2017-07-09T02:59:06.732Z,72.00
2017-07-09T03:01:34.221Z,71.50
2017-07-09T03:04:01.783Z,70.00
2017-07-09T03:06:29.292Z,69.30
2017-07-09T03:08:56.800Z,68.40
2017-07-09T03:11:24.341Z,67.90
2017-07-09T03:13:52.613Z,75.60
2017-07-09T03:16:20.110Z,75.60
2017-07-09T03:18:47.626Z,80.00
2017-07-09T03:21:15.884Z,82.00
2017-07-09T03:23:43.371Z,82.00
2017-07-09T03:26:13.576Z,84.20
2017-07-09T03:28:41.087Z,84.20
2017-07-09T03:31:08.587Z,83.90
2017-07-09T03:33:36.075Z,83.50
2017-07-09T03:36:04.347Z,82.20
2017-07-09T03:38:32.613Z,81.00
2017-07-09T03:41:00.897Z,82.80
2017-07-09T03:43:28.383Z,82.00
2017-07-09T03:45:55.908Z,81.60
2017-07-09T03:48:23.400Z,82.00
2017-07-09T03:50:50.903Z,81.30
2017-07-09T03:53:18.401Z,79.50
2017-07-09T03:55:46.682Z,81.10
2017-07-09T03:58:14.188Z,81.00
2017-07-09T04:00:41.920Z,80.70
2017-07-09T04:03:09.407Z,80.50
2017-07-09T04:05:36.919Z,80.80
2017-07-09T04:08:05.168Z,81.60
2017-07-09T04:10:32.688Z,81.50
2017-07-09T04:13:00.176Z,83.10
2017-07-09T04:15:27.740Z,84.70
2017-07-09T04:17:55.227Z,85.90
2017-07-09T04:20:22.739Z,86.20
2017-07-09T04:22:50.240Z,85.30
2017-07-09T04:25:18.526Z,87.50
2017-07-09T04:27:46.801Z,87.60
2017-07-09T04:30:15.467Z,85.70
2017-07-09T04:32:42.997Z,85.50
2017-07-09T04:35:10.517Z,85.50
2017-07-09T04:37:38.771Z,86.40
2017-07-09T04:40:06.285Z,86.20
2017-07-09T04:42:33.771Z,85.80
2017-07-09T04:45:01.283Z,87.80
2017-07-09T04:47:28.832Z,87.60
2017-07-09T04:49:57.116Z,86.80
2017-07-09T04:52:24.629Z,86.70
2017-07-09T04:54:52.202Z,87.20
2017-07-09T04:57:19.719Z,87.30
2017-07-09T04:59:47.309Z,87.60
2017-07-09T05:02:14.768Z,88.20
2017-07-09T05:04:42.294Z,88.90
2017-07-09T05:07:09.832Z,89.20
2017-07-09T05:09:37.378Z,88.60
2017-07-09T05:12:05.694Z,89.10
2017-07-09T05:14:33.235Z,89.10
2017-07-09T05:17:00.751Z,88.70
2017-07-09T05:19:28.389Z,88.40
2017-07-09T05:21:55.904Z,87.80
2017-07-09T05:24:24.205Z,88.20
2017-07-09T05:26:51.715Z,88.20
2017-07-09T05:29:19.254Z,88.80
2017-07-09T05:31:46.773Z,90.00
2017-07-09T05:34:17.164Z,89.80
2017-07-09T05:36:44.706Z,90.00
2017-07-09T05:39:12.258Z,90.40
2017-07-09T05:41:39.799Z,90.10
2017-07-09T05:44:07.330Z,90.40
2017-07-09T05:46:35.653Z,90.50
2017-07-09T05:49:03.176Z,90.50
2017-07-09T05:51:30.669Z,88.20
2017-07-09T05:53:58.196Z,89.70
2017-07-09T05:56:25.685Z,90.30
2017-07-09T05:58:53.227Z,89.80
2017-07-09T06:01:20.728Z,89.30
2017-07-09T06:03:48.245Z,88.00
2017-07-09T06:06:15.751Z,88.70
2017-07-09T06:08:43.267Z,89.30
2017-07-09T06:11:11.423Z,88.60
2017-07-09T06:13:38.990Z,88.30
2017-07-09T06:16:06.515Z,88.10
2017-07-09T06:18:34.041Z,87.40
2017-07-09T06:21:01.553Z,86.80
2017-07-09T06:23:30.042Z,84.50
2017-07-09T06:25:57.783Z,84.40
2017-07-09T06:28:25.561Z,83.20
2017-07-09T06:30:53.830Z,79.40
2017-07-09T06:33:21.343Z,79.30
2017-07-09T06:35:48.867Z,77.30
2017-07-09T06:38:16.400Z,77.70
2017-07-09T06:40:44.970Z,77.60
2017-07-09T06:43:12.481Z,77.50
2017-07-09T06:45:40.902Z,74.90
2017-07-09T06:48:08.462Z,75.40
2017-07-09T06:50:36.066Z,76.20
2017-07-09T06:53:04.387Z,74.60
2017-07-09T06:55:31.929Z,74.50
2017-07-09T06:57:59.449Z,74.50
2017-07-09T07:00:27.749Z,76.50
2017-07-09T07:02:55.252Z,76.40
2017-07-09T07:05:23.010Z,78.50
2017-07-09T07:07:50.641Z,78.70
2017-07-09T07:10:18.173Z,75.80
2017-07-09T07:12:45.739Z,75.60
2017-07-09T07:15:13.321Z,74.30
2017-07-09T07:17:40.853Z,74.00
2017-07-09T07:20:08.431Z,73.40
2017-07-09T07:22:36.038Z,72.50
2017-07-09T07:25:03.600Z,71.40
2017-07-09T07:27:31.112Z,70.60
2017-07-09T07:29:58.635Z,70.30
2017-07-09T07:32:26.138Z,69.80
2017-07-09T07:34:54.379Z,69.40
2017-07-09T07:37:21.896Z,69.70
2017-07-09T07:39:49.669Z,69.60
2017-07-09T07:42:17.184Z,69.90
2017-07-09T07:44:45.547Z,68.60
2017-07-09T07:47:13.828Z,70.10
2017-07-09T07:49:41.369Z,69.10
2017-07-09T07:52:08.904Z,68.30
2017-07-09T07:54:36.652Z,67.60
2017-07-09T07:57:04.157Z,65.80
2017-07-09T07:59:31.682Z,66.30
2017-07-09T08:02:00.104Z,64.90
2017-07-09T08:04:27.630Z,64.70
2017-07-09T08:06:55.164Z,63.40
2017-07-09T08:09:22.721Z,65.10
2017-07-09T08:11:50.248Z,66.10
2017-07-09T08:14:17.826Z,63.40
2017-07-09T08:16:46.128Z,66.80
2017-07-09T08:19:13.902Z,66.10
2017-07-09T08:21:41.400Z,66.20
2017-07-09T08:24:09.140Z,66.40
2017-07-09T08:26:36.669Z,65.40
2017-07-09T08:29:05.834Z,65.50
2017-07-09T08:31:33.513Z,65.80
2017-07-09T08:34:01.082Z,65.50
2017-07-09T08:36:28.618Z,66.10
2017-07-09T08:38:56.181Z,64.20
2017-07-09T08:41:23.713Z,64.80
2017-07-09T08:43:52.015Z,65.20
2017-07-09T08:46:19.524Z,65.20
2017-07-09T08:48:47.037Z,64.20
2017-07-09T08:51:14.552Z,63.50
2017-07-09T08:53:42.121Z,62.10
2017-07-09T08:56:09.652Z,61.90
2017-07-09T08:58:37.252Z,62.10
2017-07-09T09:01:07.146Z,62.10
2017-07-09T09:03:34.730Z,64.20
2017-07-09T09:06:02.263Z,63.60
2017-07-09T09:08:29.851Z,62.80
2017-07-09T09:10:57.375Z,63.70
2017-07-09T09:13:24.956Z,62.80
2017-07-09T09:15:53.271Z,62.00
2017-07-09T09:18:20.868Z,62.00
2017-07-09T09:20:48.427Z,62.80
2017-07-09T09:23:15.961Z,63.80
2017-07-09T09:25:43.590Z,62.60
2017-07-09T09:28:11.206Z,63.30
2017-07-09T09:30:38.806Z,63.10
2017-07-09T09:33:07.165Z,65.70
2017-07-09T09:35:34.721Z,65.70
2017-07-09T09:38:02.342Z,65.80
2017-07-09T09:40:30.633Z,64.10
2017-07-09T09:42:58.220Z,64.10
2017-07-09T09:45:26.505Z,64.20
2017-07-09T09:47:54.086Z,63.60
2017-07-09T09:50:21.652Z,62.90
2017-07-09T09:52:49.222Z,61.50
2017-07-09T09:55:16.917Z,61.10
2017-07-09T09:57:45.214Z,60.80
2017-07-09T10:00:12.762Z,60.80
2017-07-09T10:02:40.717Z,59.60
2017-07-09T10:05:09.014Z,59.20
2017-07-09T10:07:36.551Z,59.20
2017-07-09T10:10:04.078Z,59.20
2017-07-09T10:12:31.669Z,59.70
2017-07-09T10:14:59.167Z,57.00
2017-07-09T10:17:26.742Z,57.20
2017-07-09T10:19:54.265Z,58.40
2017-07-09T10:22:21.823Z,58.20
2017-07-09T10:24:49.331Z,56.70
2017-07-09T10:27:16.864Z,57.40
2017-07-09T10:29:44.463Z,57.10
2017-07-09T10:32:11.982Z,55.60
2017-07-09T10:34:39.526Z,56.90
2017-07-09T10:37:07.038Z,57.40
2017-07-09T10:39:34.592Z,56.20
2017-07-09T10:42:02.919Z,56.70
2017-07-09T10:44:30.456Z,56.60
2017-07-09T10:46:57.981Z,57.90
2017-07-09T10:49:25.514Z,57.90
2017-07-09T10:51:53.013Z,56.30
2017-07-09T10:54:20.637Z,56.20
2017-07-09T10:56:48.221Z,55.70
2017-07-09T10:59:15.790Z,55.10
2017-07-09T11:01:44.119Z,54.20
2017-07-09T11:04:12.717Z,54.20
2017-07-09T11:06:40.426Z,54.00
2017-07-09T11:09:08.092Z,55.20
2017-07-09T11:11:35.692Z,55.10
2017-07-09T11:14:04.245Z,55.00
2017-07-09T11:16:31.855Z,55.20
2017-07-09T11:18:59.444Z,54.50
2017-07-09T11:21:26.974Z,54.60
2017-07-09T11:23:56.720Z,55.60
2017-07-09T11:26:24.309Z,55.50
2017-07-09T11:28:54.067Z,55.20
2017-07-09T11:31:24.697Z,54.40
2017-07-09T11:33:56.655Z,53.90
2017-07-09T11:36:26.252Z,54.70
2017-07-09T11:38:54.489Z,52.90
2017-07-09T11:41:22.371Z,53.80
2017-07-09T11:43:50.770Z,53.30
2017-07-09T11:46:18.520Z,52.90
2017-07-09T11:48:46.060Z,53.50
2017-07-09T11:51:13.597Z,53.60
2017-07-09T11:53:41.254Z,53.40
2017-07-09T11:56:08.805Z,53.60
2017-07-09T11:58:36.490Z,54.10
2017-07-09T12:01:04.055Z,53.70
2017-07-09T12:03:32.304Z,54.80
2017-07-09T12:06:01.979Z,53.10
2017-07-09T12:08:29.965Z,52.40
2017-07-09T12:10:57.664Z,52.50
2017-07-09T12:13:25.430Z,51.80
2017-07-09T12:15:53.140Z,51.30
2017-07-09T12:18:20.968Z,51.50
2017-07-09T12:20:48.473Z,51.70
2017-07-09T12:23:16.099Z,51.30
2017-07-09T12:25:43.899Z,51.20
2017-07-09T12:28:11.489Z,50.30
2017-07-09T12:30:39.757Z,49.50
2017-07-09T12:33:07.504Z,49.40
2017-07-09T12:35:35.102Z,51.00
2017-07-09T12:38:02.626Z,51.90
2017-07-09T12:40:31.046Z,50.30
2017-07-09T12:42:58.572Z,50.50
2017-07-09T12:45:26.092Z,50.10
2017-07-09T12:47:53.656Z,52.70
2017-07-09T12:50:21.411Z,53.20
2017-07-09T12:52:48.939Z,52.00
2017-07-09T12:55:16.848Z,51.60
2017-07-09T12:57:44.587Z,51.20
2017-07-09T13:00:12.112Z,52.30
2017-07-09T13:02:39.616Z,51.80
2017-07-09T13:05:07.112Z,52.20
2017-07-09T13:07:34.649Z,52.40
2017-07-09T13:10:02.256Z,51.60
2017-07-09T13:12:33.238Z,51.30
2017-07-09T13:15:02.745Z,50.30
2017-07-09T13:17:30.528Z,50.20
2017-07-09T13:20:00.064Z,49.90
2017-07-09T13:22:27.793Z,49.90
2017-07-09T13:27:28.663Z,51.20
2017-07-09T13:29:56.829Z,51.90
2017-07-09T13:32:29.774Z,50.80
2017-07-09T13:34:59.209Z,53.20
2017-07-09T13:37:26.723Z,54.50
2017-07-09T13:39:54.212Z,57.00
2017-07-09T13:42:21.718Z,58.50
2017-07-09T13:44:49.209Z,60.10
2017-07-09T13:47:17.179Z,64.80
2017-07-09T13:49:44.701Z,62.20
2017-07-09T13:52:12.521Z,66.70
2017-07-09T13:54:41.065Z,63.60
2017-07-09T13:57:09.664Z,68.40
2017-07-09T13:59:37.960Z,70.90
2017-07-09T14:02:05.490Z,70.90
2017-07-09T14:04:33.017Z,71.30
2017-07-09T14:07:00.527Z,72.60
2017-07-09T14:09:28.779Z,74.00
2017-07-09T14:11:56.293Z,73.90
2017-07-09T14:14:23.789Z,73.80
2017-07-09T14:16:51.297Z,74.70
2017-07-09T14:19:18.787Z,72.40
2017-07-09T14:21:46.300Z,72.40
2017-07-09T14:24:14.779Z,75.00
2017-07-09T14:26:43.077Z,76.20
2017-07-09T14:29:14.382Z,75.90
2017-07-09T14:31:41.988Z,74.60
2017-07-09T14:34:09.484Z,75.70
2017-07-09T14:36:37.532Z,75.60
2017-07-09T14:39:05.028Z,75.90
2017-07-09T14:41:32.541Z,74.40
2017-07-09T14:44:00.044Z,75.70
2017-07-09T14:46:27.557Z,76.20
2017-07-09T14:48:55.058Z,75.80
2017-07-09T14:51:22.828Z,75.70
2017-07-09T14:53:50.640Z,75.00
2017-07-09T14:56:20.158Z,74.00
2017-07-09T14:58:47.670Z,73.10
2017-07-09T15:01:15.186Z,72.00
2017-07-09T15:03:42.684Z,69.90
2017-07-09T15:06:10.207Z,67.50
2017-07-09T15:08:37.708Z,64.50
2017-07-09T15:11:05.219Z,63.40
2017-07-09T15:13:33.127Z,62.90
2017-07-09T15:16:03.378Z,63.30
2017-07-09T15:18:31.243Z,63.20
2017-07-09T15:20:59.560Z,62.20
2017-07-09T15:23:27.081Z,62.20
2017-07-09T15:25:55.365Z,61.60
2017-07-09T15:28:23.629Z,61.80
2017-07-09T15:30:51.141Z,61.60
2017-07-09T15:33:18.631Z,62.00
2017-07-09T15:35:46.149Z,61.60
2017-07-09T15:38:16.226Z,62.20
2017-07-09T15:40:43.829Z,61.90
2017-07-09T15:43:11.642Z,59.60
2017-07-09T15:45:39.179Z,59.60
2017-07-09T15:48:06.838Z,60.30
2017-07-09T15:50:34.442Z,60.90
2017-07-09T15:53:06.013Z,59.60
2017-07-09T15:55:33.546Z,59.90
2017-07-09T15:58:01.119Z,59.10
2017-07-09T16:00:28.737Z,61.10
2017-07-09T16:02:56.248Z,59.60
2017-07-09T16:05:25.241Z,61.60
2017-07-09T16:07:53.528Z,61.60
2017-07-09T16:10:22.846Z,61.60
2017-07-09T16:12:50.380Z,61.80
2017-07-09T16:15:17.933Z,62.70
2017-07-09T16:17:45.420Z,64.00
2017-07-09T16:20:12.928Z,65.30
2017-07-09T16:22:40.420Z,65.10
2017-07-09T16:25:08.688Z,68.40
2017-07-09T16:27:36.176Z,68.30
2017-07-09T16:30:03.790Z,69.60
2017-07-09T16:32:31.283Z,69.80
2017-07-09T16:34:59.783Z,69.00
2017-07-09T16:37:28.848Z,68.90
2017-07-09T16:39:56.373Z,69.80
2017-07-09T16:42:24.027Z,66.90
2017-07-09T16:44:51.612Z,67.50
2017-07-09T16:47:19.147Z,65.70
2017-07-09T16:49:46.660Z,66.90
2017-07-09T16:52:18.504Z,69.80
2017-07-09T16:54:46.022Z,69.70
2017-07-09T16:57:13.632Z,69.70
2017-07-09T16:59:41.078Z,69.40
2017-07-09T17:02:08.591Z,70.30
2017-07-09T17:04:36.102Z,69.70
2017-07-09T17:07:03.621Z,70.30
2017-07-09T17:09:31.106Z,69.60
2017-07-09T17:11:59.344Z,71.20
2017-07-09T17:14:26.846Z,72.60
2017-07-09T17:16:54.364Z,74.20
2017-07-09T17:19:21.856Z,75.30
2017-07-09T17:21:49.359Z,77.50
2017-07-09T17:24:16.875Z,78.30
2017-07-09T17:26:44.383Z,78.70
2017-07-09T17:29:11.891Z,79.10
2017-07-09T17:31:39.661Z,79.80
2017-07-09T17:34:07.374Z,78.80
2017-07-09T17:36:34.907Z,77.90
2017-07-09T17:39:03.162Z,78.60
2017-07-09T17:41:30.684Z,78.60
2017-07-09T17:43:58.191Z,78.40
2017-07-09T17:46:25.701Z,78.20
2017-07-09T17:48:53.955Z,79.00
2017-07-09T17:51:21.551Z,79.30
2017-07-09T17:53:49.117Z,79.40
2017-07-09T17:56:17.067Z,79.40
2017-07-09T17:58:44.580Z,79.90
2017-07-09T18:01:12.126Z,80.30
2017-07-09T18:03:40.420Z,78.50
2017-07-09T18:06:07.948Z,78.40
2017-07-09T18:08:35.440Z,77.10
2017-07-09T18:11:03.724Z,74.80
2017-07-09T18:13:31.977Z,73.90
2017-07-09T18:15:59.514Z,73.70
2017-07-09T18:18:27.006Z,72.70
2017-07-09T18:20:54.513Z,71.60
2017-07-09T18:23:22.003Z,70.80
2017-07-09T18:25:49.881Z,70.40
2017-07-09T18:28:17.375Z,69.90
2017-07-09T18:30:45.655Z,70.30
2017-07-09T18:33:13.912Z,69.90
2017-07-09T18:35:41.996Z,69.80
2017-07-09T18:38:10.249Z,68.80
2017-07-09T18:40:39.618Z,68.80
2017-07-09T18:43:07.107Z,69.80
2017-07-09T18:45:35.387Z,68.90
2017-07-09T18:48:02.901Z,67.80
2017-07-09T18:50:30.422Z,67.30
2017-07-09T18:52:57.932Z,66.20
2017-07-09T18:55:25.448Z,67.00
2017-07-09T18:57:52.941Z,68.20
2017-07-09T19:00:20.463Z,70.00
2017-07-09T19:02:48.727Z,70.40
2017-07-09T19:05:16.244Z,69.90
2017-07-09T19:07:43.731Z,70.50
2017-07-09T19:10:11.364Z,70.30
2017-07-09T19:12:38.851Z,70.60
2017-07-09T19:15:06.364Z,70.90
2017-07-09T19:17:33.850Z,71.30
2017-07-09T19:20:01.360Z,71.40
2017-07-09T19:22:29.618Z,71.50
2017-07-09T19:24:57.233Z,71.30
2017-07-09T19:27:24.724Z,71.30
2017-07-09T19:29:52.236Z,71.40
2017-07-09T19:32:19.813Z,71.40
2017-07-09T19:34:47.324Z,71.20
2017-07-09T19:37:14.807Z,71.40
2017-07-09T19:39:43.077Z,72.00
2017-07-09T19:42:11.339Z,72.10
2017-07-09T19:44:38.854Z,72.00
2017-07-09T19:47:06.453Z,72.40
2017-07-09T19:49:33.964Z,72.60
2017-07-09T19:52:01.461Z,72.90
2017-07-09T19:54:29.023Z,73.20
2017-07-09T19:56:56.511Z,73.30
2017-07-09T19:59:24.796Z,74.40
2017-07-09T20:01:52.298Z,74.30
2017-07-09T20:04:19.808Z,76.20
2017-07-09T20:06:47.320Z,77.00
2017-07-09T20:09:14.889Z,80.00
2017-07-09T20:11:42.391Z,81.20
2017-07-09T20:14:10.670Z,82.90
2017-07-09T20:16:38.183Z,82.80
2017-07-09T20:19:05.697Z,84.70
2017-07-09T20:21:33.198Z,84.80
2017-07-09T20:24:00.703Z,85.00
2017-07-09T20:26:28.958Z,87.40
2017-07-09T20:28:56.469Z,87.30
2017-07-09T20:31:23.968Z,87.30
2017-07-09T20:33:51.484Z,87.90
2017-07-09T20:36:18.991Z,89.40
2017-07-09T20:38:46.508Z,90.00
2017-07-09T20:41:14.004Z,90.50
2017-07-09T20:43:41.526Z,90.50
2017-07-09T20:46:09.014Z,90.90
2017-07-09T20:48:36.520Z,91.20
2017-07-09T20:51:04.017Z,91.00
2017-07-09T20:53:31.536Z,91.40
2017-07-09T20:55:59.797Z,90.90
2017-07-09T20:58:28.071Z,91.50
2017-07-09T21:00:55.594Z,91.10
2017-07-09T21:03:23.115Z,91.20
2017-07-09T21:05:50.614Z,91.70
2017-07-09T21:08:18.108Z,91.40
2017-07-09T21:10:46.389Z,92.60
2017-07-09T21:13:13.881Z,92.30
2017-07-09T21:15:41.396Z,92.10
2017-07-09T21:18:09.739Z,92.60
2017-07-09T21:20:37.257Z,92.40
2017-07-09T21:23:05.556Z,92.80
2017-07-09T21:25:33.096Z,92.70
2017-07-09T21:28:01.385Z,92.90
2017-07-09T21:30:28.895Z,92.80
2017-07-09T21:32:56.383Z,92.70
2017-07-09T21:35:24.657Z,93.80
2017-07-09T21:37:52.921Z,92.90
2017-07-09T21:40:20.460Z,92.90
2017-07-09T21:42:47.951Z,92.90
2017-07-09T21:45:16.238Z,93.00
2017-07-09T21:47:44.528Z,93.60
2017-07-09T21:50:12.800Z,93.00
2017-07-09T21:52:40.292Z,92.90
2017-07-09T21:55:07.828Z,92.90
2017-07-09T21:57:35.308Z,93.10
2017-07-09T22:00:02.823Z,92.80
2017-07-09T22:02:31.089Z,92.50
2017-07-09T22:04:58.595Z,92.40
2017-07-09T22:07:26.103Z,93.40
2017-07-09T22:09:53.683Z,94.20
2017-07-09T22:12:21.942Z,94.20
2017-07-09T22:14:49.452Z,94.20
2017-07-09T22:17:16.940Z,94.10
2017-07-09T22:19:44.700Z,94.40
2017-07-09T22:22:12.207Z,94.40
2017-07-09T22:24:39.723Z,94.20
2017-07-09T22:27:07.212Z,93.90
2017-07-09T22:29:34.716Z,93.80
2017-07-09T22:32:02.203Z,93.90
2017-07-09T22:34:29.707Z,93.60
2017-07-09T22:36:57.977Z,94.00
2017-07-09T22:39:26.255Z,94.10
2017-07-09T22:41:54.511Z,94.20
2017-07-09T22:44:22.029Z,94.10
2017-07-09T22:46:49.525Z,94.20
2017-07-09T22:49:17.045Z,94.30
2017-07-09T22:51:44.539Z,94.40
2017-07-09T22:54:12.075Z,93.50
2017-07-09T22:56:39.586Z,94.10
2017-07-09T22:59:07.919Z,93.10
2017-07-09T23:01:41.211Z,93.00
2017-07-09T23:04:08.720Z,93.30
2017-07-09T23:06:36.208Z,93.80
2017-07-09T23:09:03.787Z,93.50
2017-07-09T23:11:31.313Z,92.80
2017-07-09T23:13:58.860Z,93.70
2017-07-09T23:16:27.169Z,93.40
2017-07-09T23:18:54.776Z,93.30
2017-07-09T23:21:22.288Z,93.30
2017-07-09T23:23:49.807Z,93.30
2017-07-09T23:26:18.071Z,92.80
2017-07-09T23:28:45.591Z,92.40
2017-07-09T23:31:13.125Z,93.10
2017-07-09T23:33:40.633Z,93.00
2017-07-09T23:36:08.174Z,93.00
2017-07-09T23:38:35.694Z,93.20
2017-07-09T23:41:04.037Z,93.30
2017-07-09T23:43:31.674Z,93.30
2017-07-09T23:45:59.217Z,93.20
2017-07-09T23:48:26.755Z,93.30
2017-07-09T23:50:54.309Z,93.30
2017-07-09T23:53:22.627Z,93.20
2017-07-09T23:55:50.128Z,93.20
2017-07-09T23:58:17.656Z,92.90
